Time;durP1;ratioP1;P1;durP2;ratioP2;P2;SDS_P1;SDS_P2;PMS_P1;PMS_P2;Temp;Humidity;BMP_temperature;BMP_pressure;BME280_temperature;BME280_humidity;BME280_pressure;Samples;Min_cycle;Max_cycle;Signal;HPM_P1;HPM_P2
2022/12/14 00:01:23;;;;;;;48.27;22.97;;;-3.40;99.90;;;;;;5027646;28;20491;-63
2022/12/14 00:03:50;;;;;;;51.63;23.73;;;-3.40;99.90;;;;;;5028409;28;20045;-62
2022/12/14 00:06:24;;;;;;;41.53;21.40;;;-3.40;99.90;;;;;;5028211;28;20053;-62
2022/12/14 00:08:52;;;;;;;46.23;22.63;;;-3.40;99.90;;;;;;5026431;28;20049;-62
2022/12/14 00:11:19;;;;;;;45.10;21.63;;;-3.40;99.90;;;;;;5025631;28;20122;-63
2022/12/14 00:13:45;;;;;;;43.97;21.07;;;-3.40;99.90;;;;;;5027657;28;20069;-63
2022/12/14 00:16:13;;;;;;;45.07;22.87;;;-3.40;99.90;;;;;;5029560;28;20033;-62
2022/12/14 00:18:39;;;;;;;44.50;21.93;;;-3.40;99.90;;;;;;5027218;28;20046;-63
2022/12/14 00:21:10;;;;;;;50.83;22.70;;;-3.50;99.90;;;;;;5026375;28;20407;-62
2022/12/14 00:23:37;;;;;;;;;;;-3.50;99.90;;;;;;5029312;28;20396;-62
2022/12/14 00:26:11;;;;;;;45.23;21.13;;;-3.50;99.90;;;;;;5028084;28;19918;-62
2022/12/14 00:28:37;;;;;;;41.80;20.63;;;-3.50;99.90;;;;;;5025326;28;20081;-62
2022/12/14 00:31:03;;;;;;;42.93;20.40;;;-3.60;99.90;;;;;;5011139;28;20139;-62
2022/12/14 00:33:29;;;;;;;44.50;22.03;;;-3.60;99.90;;;;;;5026888;28;20052;-63
2022/12/14 00:35:54;;;;;;;46.20;22.40;;;-3.60;99.90;;;;;;5027445;28;20053;-62
2022/12/14 00:38:20;;;;;;;48.03;24.20;;;-3.70;99.90;;;;;;5029240;28;20504;-62
2022/12/14 00:40:46;;;;;;;45.40;22.77;;;-3.60;99.90;;;;;;5023737;28;20050;-62
2022/12/14 00:43:11;;;;;;;45.43;22.33;;;-3.70;99.90;;;;;;5027425;28;20037;-63
2022/12/14 00:45:37;;;;;;;50.53;24.80;;;-3.70;99.90;;;;;;5026707;28;20041;-62
2022/12/14 00:48:03;;;;;;;44.97;21.57;;;-3.70;99.90;;;;;;5027544;28;20037;-62
2022/12/14 00:50:28;;;;;;;45.43;21.67;;;-3.70;99.90;;;;;;5028736;28;20522;-62
2022/12/14 00:52:54;;;;;;;46.60;22.27;;;-3.70;99.90;;;;;;5014829;28;20041;-62
2022/12/14 00:55:19;;;;;;;46.73;23.03;;;-3.70;99.90;;;;;;5033213;28;20045;-62
2022/12/14 00:57:45;;;;;;;45.47;23.47;;;-3.70;99.90;;;;;;5071426;22;20047;-75
2022/12/14 01:00:11;;;;;;;44.50;22.07;;;-3.70;99.90;;;;;;5067444;28;20456;-74
2022/12/14 01:02:36;;;;;;;51.30;23.37;;;-3.70;99.90;;;;;;5064586;28;20116;-74
2022/12/14 01:05:02;;;;;;;48.87;22.13;;;-3.70;99.90;;;;;;5075079;28;20119;-74
2022/12/14 01:07:28;;;;;;;48.57;22.87;;;-3.80;99.90;;;;;;5065404;28;20041;-74
2022/12/14 01:09:53;;;;;;;49.50;22.57;;;-3.70;99.90;;;;;;5047070;28;20041;-74
2022/12/14 01:12:19;;;;;;;45.33;22.03;;;-3.80;99.90;;;;;;5047746;28;20415;-74
2022/12/14 01:14:45;;;;;;;48.80;22.83;;;-3.70;99.90;;;;;;5043830;28;20115;-74
2022/12/14 01:17:11;;;;;;;45.93;22.53;;;-3.70;99.90;;;;;;5052634;28;20052;-74
2022/12/14 01:19:36;;;;;;;48.67;22.80;;;-3.70;99.90;;;;;;5044740;28;20033;-74
2022/12/14 01:22:02;;;;;;;47.40;23.13;;;-3.70;99.90;;;;;;5044377;28;20063;-74
2022/12/14 01:24:28;;;;;;;44.53;22.53;;;-3.70;99.90;;;;;;5046578;28;20114;-74
2022/12/14 01:26:54;;;;;;;43.40;21.77;;;-3.80;99.90;;;;;;5043069;28;20094;-74
2022/12/14 01:29:19;;;;;;;42.40;21.60;;;-3.80;99.90;;;;;;5047950;28;20438;-74
2022/12/14 01:31:45;;;;;;;48.87;23.43;;;-3.80;99.90;;;;;;5045657;28;20052;-74
2022/12/14 01:34:11;;;;;;;46.80;22.90;;;-3.90;99.90;;;;;;5048140;28;20087;-74
2022/12/14 01:36:37;;;;;;;51.10;24.83;;;-3.90;99.90;;;;;;5035643;28;20083;-74
2022/12/14 01:39:12;;;;;;;46.87;23.07;;;-3.90;99.90;;;;;;5043998;28;20517;-74
2022/12/14 01:41:56;;;;;;;49.03;23.77;;;-3.90;99.90;;;;;;5052902;28;20056;-75
2022/12/14 01:44:21;;;;;;;51.00;24.40;;;-3.80;99.90;;;;;;5053487;28;20045;-75
2022/12/14 01:46:57;;;;;;;46.23;22.20;;;-3.80;99.90;;;;;;5052395;28;20498;-74
2022/12/14 01:49:35;;;;;;;46.23;22.93;;;-3.80;99.90;;;;;;5046515;28;20503;-75
2022/12/14 01:52:11;;;;;;;51.83;23.43;;;-3.80;99.90;;;;;;5044900;28;20124;-74
2022/12/14 01:55:01;;;;;;;54.67;23.70;;;-3.80;99.90;;;;;;5052147;28;20112;-75
2022/12/14 01:57:38;;;;;;;43.03;22.10;;;-3.80;99.90;;;;;;5037439;28;20073;-75
2022/12/14 02:00:07;;;;;;;48.03;22.53;;;-3.80;99.90;;;;;;5045054;28;20041;-75
2022/12/14 02:02:35;;;;;;;47.00;22.20;;;-3.80;99.90;;;;;;5048983;28;20037;-74
2022/12/14 02:05:04;;;;;;;43.10;21.33;;;-3.80;99.90;;;;;;5053911;28;20580;-75
2022/12/14 02:07:30;;;;;;;47.97;22.77;;;-3.80;99.90;;;;;;5051246;28;20041;-74
2022/12/14 02:10:00;;;;;;;46.03;21.93;;;-3.80;99.90;;;;;;5048186;28;20072;-75
2022/12/14 02:12:33;;;;;;;46.03;22.70;;;-3.80;99.90;;;;;;5046174;28;20033;-75
2022/12/14 02:15:00;;;;;;;44.63;21.37;;;-3.80;99.90;;;;;;5039099;28;20049;-74
2022/12/14 02:17:27;;;;;;;45.27;22.67;;;-3.80;99.90;;;;;;5040140;28;20053;-75
2022/12/14 02:19:55;;;;;;;45.40;22.70;;;-3.90;99.90;;;;;;5050379;28;20049;-74
2022/12/14 02:22:42;;;;;;;43.77;20.40;;;-3.90;99.90;;;;;;5039830;28;20392;-75
2022/12/14 02:25:34;;;;;;;45.33;23.00;;;-3.90;99.90;;;;;;5040118;28;20037;-74
2022/12/14 02:28:09;;;;;;;46.67;21.63;;;-4.00;99.90;;;;;;5048875;28;20033;-74
2022/12/14 02:30:40;;;;;;;47.00;23.00;;;-4.10;99.90;;;;;;5052260;28;20127;-74
2022/12/14 02:33:33;;;;;;;43.78;22.05;;;-4.10;99.90;;;;;;5040757;28;20052;-74
2022/12/14 02:36:36;;;;;;;43.37;21.53;;;-4.20;99.90;;;;;;5044944;28;20037;-74
2022/12/14 02:39:29;;;;;;;44.77;20.63;;;-4.20;99.90;;;;;;5042220;28;20053;-74
2022/12/14 02:42:07;;;;;;;45.67;21.40;;;-4.20;99.90;;;;;;5051259;28;20084;-74
2022/12/14 02:44:49;;;;;;;50.87;22.17;;;-4.20;99.90;;;;;;5041509;28;20048;-74
2022/12/14 02:47:25;;;;;;;45.47;21.57;;;-4.20;99.90;;;;;;5039116;28;20120;-74
2022/12/14 02:49:50;;;;;;;40.50;19.67;;;-4.20;99.90;;;;;;5042384;28;20045;-74
2022/12/14 02:52:37;;;;;;;47.50;21.87;;;-4.20;99.90;;;;;;5052400;28;20035;-74
2022/12/14 02:55:35;;;;;;;42.30;21.03;;;-4.30;99.90;;;;;;5046350;28;20037;-74
2022/12/14 02:58:23;;;;;;;42.03;20.60;;;-4.30;99.90;;;;;;5046568;28;20048;-74
2022/12/14 03:00:49;;;;;;;46.50;21.43;;;-4.30;99.90;;;;;;5044927;28;20121;-74
2022/12/14 03:03:15;;;;;;;45.73;22.03;;;-4.30;99.90;;;;;;5049926;28;20108;-75
2022/12/14 03:05:41;;;;;;;49.23;21.87;;;-4.30;99.90;;;;;;5051275;28;20028;-75
2022/12/14 03:08:15;;;;;;;42.77;21.47;;;-4.30;99.90;;;;;;5043615;28;20102;-75
2022/12/14 03:10:54;;;;;;;44.17;20.23;;;-4.30;99.90;;;;;;5044480;28;20468;-75
2022/12/14 03:13:32;;;;;;;45.70;22.07;;;-4.20;99.90;;;;;;5048132;28;20032;-75
2022/12/14 03:16:09;;;;;;;46.17;21.33;;;-4.30;99.90;;;;;;5052670;28;20040;-75
2022/12/14 03:18:40;;;;;;;44.37;21.57;;;-4.30;99.90;;;;;;5043925;28;20049;-75
2022/12/14 03:21:09;;;;;;;;;;;-4.30;99.90;;;;;;5051447;28;20063;-75
2022/12/14 03:23:40;;;;;;;42.50;19.30;;;-4.40;99.90;;;;;;5047072;28;19921;-75
2022/12/14 03:26:31;;;;;;;45.22;19.50;;;-4.40;99.90;;;;;;5036432;28;20072;-75
2022/12/14 03:29:07;;;;;;;43.60;21.23;;;-4.50;99.90;;;;;;5042315;28;20045;-75
2022/12/14 03:31:44;;;;;;;45.23;21.37;;;-4.50;99.90;;;;;;5041653;28;20071;-75
2022/12/14 03:34:13;;;;;;;45.40;21.27;;;-4.50;99.90;;;;;;5032011;28;20510;-75
2022/12/14 03:36:48;;;;;;;46.43;22.20;;;-4.50;99.90;;;;;;5044045;28;20060;-75
2022/12/14 03:39:25;;;;;;;45.33;21.13;;;-4.50;99.90;;;;;;5036426;28;20044;-75
2022/12/14 03:42:21;;;;;;;43.37;19.50;;;-4.50;99.90;;;;;;5041947;28;20075;-75
2022/12/14 03:45:25;;;;;;;37.20;18.90;;;-4.50;99.90;;;;;;5037989;28;20098;-75
2022/12/14 03:48:03;;;;;;;42.77;21.03;;;-4.60;99.90;;;;;;5034727;28;20091;-75
2022/12/14 03:50:40;;;;;;;46.20;20.57;;;-4.60;99.90;;;;;;5042405;28;20099;-75
2022/12/14 03:53:20;;;;;;;42.97;19.07;;;-4.60;99.90;;;;;;5031795;28;20037;-75
2022/12/14 03:56:00;;;;;;;49.43;20.67;;;-4.60;99.90;;;;;;5048610;28;20041;-75
2022/12/14 03:58:34;;;;;;;46.43;21.27;;;-4.50;99.90;;;;;;5049462;28;20460;-75
2022/12/14 04:01:20;;;;;;;43.23;20.37;;;-4.50;99.90;;;;;;5048912;28;20028;-75
2022/12/14 04:03:57;;;;;;;44.20;20.30;;;-4.50;99.90;;;;;;5042465;28;20051;-75
2022/12/14 04:06:31;;;;;;;42.60;19.90;;;-4.60;99.90;;;;;;5050509;28;20040;-75
2022/12/14 04:09:21;;;;;;;45.20;21.63;;;-4.70;99.90;;;;;;5048629;28;20388;-75
2022/12/14 04:20:44;;;;;;;40.00;18.93;;;-4.80;99.90;;;;;;5046048;28;20056;-75
2022/12/14 04:26:01;;;;;;;36.93;17.57;;;-4.80;99.90;;;;;;5043460;28;20048;-75
2022/12/14 04:26:03;;;;;;;40.13;19.27;;;-4.80;99.90;;;;;;5039655;28;20045;-75
2022/12/14 04:31:31;;;;;;;44.13;19.57;;;-4.80;99.90;;;;;;5048057;28;20048;-75
2022/12/14 04:34:02;;;;;;;47.77;21.00;;;-4.80;99.90;;;;;;5039960;28;20033;-75
2022/12/14 04:36:34;;;;;;;45.00;19.38;;;-4.80;99.90;;;;;;5050133;28;20037;-74
2022/12/14 04:39:06;;;;;;;45.40;19.03;;;-4.80;99.90;;;;;;5041549;28;20120;-75
2022/12/14 04:41:36;;;;;;;44.60;21.00;;;-4.80;99.90;;;;;;5043842;28;20569;-75
2022/12/14 04:44:16;;;;;;;45.42;19.75;;;-4.80;99.90;;;;;;5040235;28;20451;-75
2022/12/14 04:46:43;;;;;;;42.57;20.67;;;-4.80;99.90;;;;;;5041335;28;20055;-75
2022/12/14 04:49:43;;;;;;;45.37;21.43;;;-4.80;99.90;;;;;;5041692;28;20079;-75
2022/12/14 04:52:20;;;;;;;48.90;21.07;;;-4.80;99.90;;;;;;5039533;28;20045;-75
2022/12/14 04:55:10;;;;;;;47.33;19.93;;;-4.80;99.90;;;;;;5038930;28;20032;-75
2022/12/14 04:57:41;;;;;;;48.17;19.80;;;-4.80;99.90;;;;;;5046239;28;20387;-75
2022/12/14 05:00:09;;;;;;;47.75;19.58;;;-4.80;99.90;;;;;;5043016;28;20099;-75
2022/12/14 05:02:46;;;;;;;41.20;19.23;;;-4.80;99.90;;;;;;5037149;28;20567;-75
2022/12/14 05:05:46;;;;;;;42.83;18.83;;;-4.80;99.90;;;;;;5040156;28;20037;-75
2022/12/14 05:08:31;;;;;;;41.67;19.10;;;-4.80;99.90;;;;;;5043207;28;20036;-75
2022/12/14 05:11:07;;;;;;;41.37;20.30;;;-4.80;99.90;;;;;;5042913;28;20515;-75
2022/12/14 05:13:41;;;;;;;41.73;19.20;;;-4.80;99.90;;;;;;5045590;28;20044;-75
2022/12/14 05:16:07;;;;;;;51.63;22.37;;;-4.90;99.90;;;;;;5039443;28;20106;-76
2022/12/14 05:18:34;;;;;;;44.57;19.43;;;-4.90;99.90;;;;;;5047878;28;20025;-75
2022/12/14 05:21:00;;;;;;;42.17;20.57;;;-4.90;99.90;;;;;;5041195;28;20057;-76
2022/12/14 05:23:25;;;;;;;45.43;20.33;;;-4.90;99.90;;;;;;5043717;28;20071;-76
2022/12/14 05:25:51;;;;;;;41.70;19.93;;;-4.90;99.90;;;;;;5042298;28;20044;-75
2022/12/14 05:28:17;;;;;;;44.23;20.87;;;-4.80;99.90;;;;;;5043530;28;20052;-75
2022/12/14 05:30:43;;;;;;;46.93;20.77;;;-4.90;99.90;;;;;;5043395;28;20116;-75
2022/12/14 05:33:16;;;;;;;47.33;22.07;;;-4.90;99.90;;;;;;5048645;28;20115;-75
2022/12/14 05:35:42;;;;;;;52.03;20.97;;;-4.90;99.90;;;;;;5050397;28;20116;-75
2022/12/14 05:38:08;;;;;;;49.50;22.17;;;-4.90;99.90;;;;;;5045933;28;20121;-74
2022/12/14 05:40:34;;;;;;;47.90;21.70;;;-4.90;99.90;;;;;;5046312;28;20037;-75
2022/12/14 05:43:04;;;;;;;42.33;19.63;;;-4.90;99.90;;;;;;5052305;28;20033;-75
2022/12/14 05:45:30;;;;;;;45.13;20.50;;;-4.90;99.90;;;;;;5044364;28;20396;-72
2022/12/14 05:47:55;;;;;;;48.80;19.73;;;-4.90;99.90;;;;;;5046094;28;20071;-72
2022/12/14 05:50:21;;;;;;;51.20;21.33;;;-5.00;99.90;;;;;;5049603;28;20057;-72
2022/12/14 05:52:49;;;;;;;39.77;19.40;;;-5.00;99.90;;;;;;5053299;28;20079;-72
2022/12/14 05:55:15;;;;;;;47.27;19.93;;;-5.00;99.90;;;;;;5052834;28;20073;-72
2022/12/14 05:57:40;;;;;;;47.30;19.80;;;-5.00;99.90;;;;;;5048303;28;20065;-72
2022/12/14 06:00:07;;;;;;;47.23;20.60;;;-5.10;99.90;;;;;;5042995;28;20124;-72
2022/12/14 06:02:33;;;;;;;47.10;20.03;;;-5.10;99.90;;;;;;5051798;28;20513;-72
2022/12/14 06:04:58;;;;;;;44.07;19.00;;;-5.10;99.90;;;;;;5042211;28;20037;-73
2022/12/14 06:07:24;;;;;;;50.60;21.30;;;-5.10;99.90;;;;;;5040357;28;20559;-73
2022/12/14 06:09:49;;;;;;;44.33;19.87;;;-5.10;99.90;;;;;;5044951;28;20037;-73
2022/12/14 06:12:15;;;;;;;44.70;19.33;;;-5.10;99.90;;;;;;5046952;28;20114;-72
2022/12/14 06:14:40;;;;;;;46.07;21.30;;;-5.20;99.90;;;;;;5047332;28;20033;-73
2022/12/14 06:17:06;;;;;;;43.97;20.03;;;-5.20;99.90;;;;;;5048928;28;20040;-73
2022/12/14 06:19:32;;;;;;;48.93;21.37;;;-5.20;99.90;;;;;;5044119;28;20045;-73
2022/12/14 06:21:57;;;;;;;49.13;20.30;;;-5.20;99.90;;;;;;5047793;28;20052;-73
2022/12/14 06:24:23;;;;;;;46.23;20.80;;;-5.20;99.90;;;;;;5042839;28;20044;-73
2022/12/14 06:26:49;;;;;;;49.83;22.10;;;-5.20;99.90;;;;;;5050054;28;20029;-73
2022/12/14 06:29:17;;;;;;;45.57;21.40;;;-5.20;99.90;;;;;;5042940;28;20033;-73
2022/12/14 06:31:43;;;;;;;46.33;20.13;;;-5.20;99.90;;;;;;5040982;28;20053;-73
2022/12/14 06:34:09;;;;;;;46.50;19.53;;;-5.20;99.90;;;;;;5043307;28;20437;-73
2022/12/14 06:36:37;;;;;;;42.77;18.83;;;-5.20;99.90;;;;;;5046879;28;20040;-73
2022/12/14 06:39:06;;;;;;;44.30;20.43;;;-5.20;99.90;;;;;;5045026;28;20487;-73
2022/12/14 06:41:32;;;;;;;42.10;19.67;;;-5.20;99.90;;;;;;5043197;28;20045;-73
2022/12/14 06:44:04;;;;;;;42.30;19.27;;;-5.20;99.90;;;;;;5047514;28;20095;-73
2022/12/14 06:46:30;;;;;;;47.77;20.03;;;-5.20;99.90;;;;;;5051244;28;20083;-73
2022/12/14 06:48:55;;;;;;;42.63;20.13;;;-5.20;99.90;;;;;;5049318;28;20433;-73
2022/12/14 06:51:22;;;;;;;40.70;19.50;;;-5.20;99.90;;;;;;5040779;28;20040;-73
2022/12/14 06:53:53;;;;;;;47.70;19.23;;;-5.20;99.90;;;;;;5044525;28;20043;-73
2022/12/14 06:56:20;;;;;;;42.43;19.00;;;-5.20;99.90;;;;;;5051454;28;20040;-73
2022/12/14 06:58:46;;;;;;;40.40;18.80;;;-5.30;99.90;;;;;;5048528;28;20064;-73
2022/12/14 07:01:19;;;;;;;40.63;17.43;;;-5.30;99.90;;;;;;5044486;28;20082;-73
2022/12/14 07:03:49;;;;;;;42.27;19.63;;;-5.30;99.90;;;;;;5050024;28;20809;-73
2022/12/14 07:08:51;;;;;;;45.53;18.47;;;-5.40;99.90;;;;;;5046312;28;20414;-65
2022/12/14 07:11:16;;;;;;;46.97;18.97;;;-5.40;99.90;;;;;;5042769;28;20038;-65
2022/12/14 07:13:43;;;;;;;43.93;20.37;;;-5.30;99.90;;;;;;5044335;28;20040;-65
2022/12/14 07:16:14;;;;;;;40.17;18.77;;;-5.30;99.90;;;;;;5044840;28;20395;-65
2022/12/14 07:18:40;;;;;;;51.03;18.50;;;-5.40;99.90;;;;;;5023893;28;20056;-65
2022/12/14 07:21:11;;;;;;;44.73;19.33;;;-5.40;99.90;;;;;;5021209;28;20029;-64
2022/12/14 07:23:37;;;;;;;;;;;-5.30;99.90;;;;;;5019155;28;20395;-65
2022/12/14 07:26:06;;;;;;;41.17;19.47;;;-5.30;99.90;;;;;;5025307;28;19921;-65
2022/12/14 07:28:32;;;;;;;45.20;19.27;;;-5.30;99.90;;;;;;5029581;28;20519;-64
2022/12/14 07:30:58;;;;;;;40.23;19.10;;;-5.30;99.90;;;;;;5022426;28;20033;-65
2022/12/14 07:33:25;;;;;;;46.17;20.13;;;-5.30;99.90;;;;;;5024214;28;20041;-65
2022/12/14 07:35:51;;;;;;;48.27;18.63;;;-5.30;99.90;;;;;;5017137;28;20029;-66
2022/12/14 07:38:17;;;;;;;37.00;19.03;;;-5.30;99.90;;;;;;5023086;28;20045;-64
2022/12/14 07:40:44;;;;;;;39.40;18.70;;;-5.30;99.90;;;;;;5019931;28;20042;-64
2022/12/14 07:43:09;;;;;;;45.73;19.53;;;-5.30;99.90;;;;;;5024247;28;20057;-65
2022/12/14 07:45:35;;;;;;;43.97;20.17;;;-5.30;99.90;;;;;;5025593;28;20458;-65
2022/12/14 07:48:01;;;;;;;44.50;19.73;;;-5.30;99.90;;;;;;5026921;28;20041;-65
2022/12/14 07:50:27;;;;;;;43.53;17.73;;;-5.30;99.90;;;;;;5011534;28;20129;-65
2022/12/14 07:52:52;;;;;;;43.93;19.27;;;-5.30;99.90;;;;;;5026062;28;20080;-65
2022/12/14 07:55:18;;;;;;;47.40;19.03;;;-5.30;99.90;;;;;;5015870;28;20057;-64
2022/12/14 07:57:44;;;;;;;43.07;18.27;;;-5.30;99.90;;;;;;5024849;28;20074;-65
2022/12/14 08:00:10;;;;;;;42.57;19.10;;;-5.30;99.90;;;;;;5024759;28;20057;-65
2022/12/14 08:02:35;;;;;;;42.37;20.10;;;-5.30;99.90;;;;;;5021549;28;20086;-65
2022/12/14 08:05:01;;;;;;;37.83;18.33;;;-5.30;99.90;;;;;;5021140;28;20045;-64
2022/12/14 08:07:30;;;;;;;38.37;17.83;;;-5.30;99.90;;;;;;5018021;28;20037;-65
2022/12/14 08:09:55;;;;;;;42.13;20.00;;;-5.30;99.90;;;;;;5030873;28;20037;-65
2022/12/14 08:12:21;;;;;;;44.20;19.17;;;-5.30;99.90;;;;;;5025776;28;20041;-65
2022/12/14 08:14:47;;;;;;;37.27;18.90;;;-5.30;99.90;;;;;;5026002;28;20209;-64
2022/12/14 08:17:13;;;;;;;40.17;17.93;;;-5.30;99.90;;;;;;5030313;28;20038;-64
2022/12/14 08:19:38;;;;;;;40.97;19.80;;;-5.30;99.90;;;;;;5031342;28;20400;-65
2022/12/14 08:22:04;;;;;;;46.17;19.10;;;-5.30;99.90;;;;;;5027824;28;20059;-65
2022/12/14 08:24:29;;;;;;;46.17;19.07;;;-5.20;99.90;;;;;;5022516;28;20037;-65
2022/12/14 08:26:55;;;;;;;41.50;19.00;;;-5.20;99.90;;;;;;5024600;28;20044;-64
2022/12/14 08:29:21;;;;;;;41.77;18.10;;;-5.20;99.90;;;;;;5024352;28;20048;-64
2022/12/14 08:31:47;;;;;;;43.33;19.63;;;-5.20;99.90;;;;;;5024032;28;20037;-65
2022/12/14 08:34:15;;;;;;;43.07;18.40;;;-5.10;99.90;;;;;;5022334;28;20498;-64
2022/12/14 08:36:40;;;;;;;40.30;18.53;;;-5.10;99.90;;;;;;5022038;28;20095;-64
2022/12/14 08:39:08;;;;;;;42.03;19.97;;;-5.10;99.90;;;;;;5029858;28;20496;-65
2022/12/14 08:41:34;;;;;;;40.37;17.93;;;-5.10;99.90;;;;;;5028161;28;20115;-65
2022/12/14 08:44:02;;;;;;;38.07;17.63;;;-5.10;99.90;;;;;;5021722;28;20575;-65
2022/12/14 08:46:30;;;;;;;41.03;18.33;;;-5.10;99.90;;;;;;5028730;28;20065;-65
2022/12/14 08:48:57;;;;;;;42.20;18.73;;;-5.10;99.90;;;;;;5024720;28;20038;-65
2022/12/14 08:51:25;;;;;;;41.47;18.53;;;-5.10;99.90;;;;;;5027010;28;20052;-65
2022/12/14 08:53:51;;;;;;;35.73;16.93;;;-5.00;99.90;;;;;;5014723;28;20068;-65
2022/12/14 08:56:19;;;;;;;40.37;19.20;;;-5.00;99.90;;;;;;5019041;28;20069;-65
2022/12/14 08:58:45;;;;;;;40.47;18.27;;;-4.90;99.90;;;;;;5028790;28;20037;-65
2022/12/14 09:01:13;;;;;;;41.77;19.57;;;-4.90;99.90;;;;;;5026272;28;20660;-65
2022/12/14 09:03:40;;;;;;;38.90;17.30;;;-4.80;99.90;;;;;;5016264;28;20026;-65
2022/12/14 09:06:08;;;;;;;42.87;18.80;;;-4.70;99.90;;;;;;5027638;28;20467;-65
2022/12/14 09:08:34;;;;;;;39.53;17.87;;;-4.70;99.90;;;;;;5027693;28;20496;-65
2022/12/14 09:11:04;;;;;;;40.87;18.50;;;-4.60;99.90;;;;;;5024983;28;20180;-65
2022/12/14 09:13:30;;;;;;;43.87;19.20;;;-4.50;99.90;;;;;;5019848;28;20049;-65
2022/12/14 09:16:04;;;;;;;41.80;18.87;;;-4.40;99.90;;;;;;5032531;28;20045;-65
2022/12/14 09:18:30;;;;;;;35.17;16.83;;;-4.30;99.90;;;;;;5022784;28;20090;-66
2022/12/14 09:20:56;;;;;;;41.53;18.17;;;-4.30;99.90;;;;;;5022716;28;20495;-66
2022/12/14 09:23:25;;;;;;;39.67;18.10;;;-4.20;99.90;;;;;;5050189;28;20521;-65
2022/12/14 09:26:04;;;;;;;39.50;19.07;;;-4.10;99.90;;;;;;5028521;28;20091;-65
2022/12/14 09:28:32;;;;;;;40.93;17.70;;;-4.00;99.90;;;;;;5020810;28;20052;-65
2022/12/14 09:31:00;;;;;;;37.93;18.13;;;-3.90;99.90;;;;;;5030438;28;20068;-64
2022/12/14 09:33:26;;;;;;;39.00;18.00;;;-3.90;99.90;;;;;;5031238;28;20056;-65
2022/12/14 09:35:51;;;;;;;40.43;17.47;;;-3.90;99.90;;;;;;5029975;28;20380;-65
2022/12/14 09:38:19;;;;;;;41.23;19.90;;;-3.80;99.90;;;;;;5025664;28;20041;-64
2022/12/14 09:40:54;;;;;;;39.47;17.30;;;-3.70;99.90;;;;;;5020148;28;20447;-65
2022/12/14 09:43:41;;;;;;;39.33;17.83;;;-3.60;99.90;;;;;;5027374;28;20050;-65
2022/12/14 09:46:51;;;;;;;39.97;19.03;;;-3.50;99.90;;;;;;5023615;28;20079;-64
2022/12/14 09:49:31;;;;;;;42.50;19.27;;;-3.40;99.90;;;;;;4991875;28;20812;-65
2022/12/14 09:52:02;;;;;;;36.87;17.37;;;-3.30;99.90;;;;;;5029164;28;20724;-64
2022/12/14 09:54:35;;;;;;;42.40;17.83;;;-3.30;99.90;;;;;;5027859;28;20483;-65
2022/12/14 09:57:08;;;;;;;43.67;19.37;;;-3.20;99.90;;;;;;5025178;28;20033;-65
2022/12/14 09:59:34;;;;;;;38.27;17.60;;;-3.20;99.90;;;;;;5025388;28;20046;-65
2022/12/14 10:02:19;;;;;;;41.90;17.97;;;-3.20;99.90;;;;;;5020925;28;20033;-65
2022/12/14 10:05:37;;;;;;;39.73;18.30;;;-3.10;99.90;;;;;;5023785;28;20041;-65
2022/12/14 10:08:26;;;;;;;40.03;18.57;;;-3.00;99.90;;;;;;4986471;28;20722;-64
2022/12/14 10:11:31;;;;;;;36.70;16.73;;;-2.90;99.90;;;;;;5019831;28;20487;-64
2022/12/14 10:14:09;;;;;;;42.80;18.37;;;-2.90;99.90;;;;;;5031170;28;20034;-64
2022/12/14 10:16:58;;;;;;;38.63;19.20;;;-2.80;99.90;;;;;;5029160;28;20112;-65
2022/12/14 10:19:24;;;;;;;39.00;17.70;;;-2.80;99.90;;;;;;5027321;28;20048;-64
2022/12/14 10:21:56;;;;;;;37.47;17.90;;;-2.80;99.90;;;;;;5030832;28;20046;-64
2022/12/14 10:24:28;;;;;;;35.00;17.83;;;-2.80;99.90;;;;;;5030749;28;20113;-64
2022/12/14 10:26:54;;;;;;;42.20;18.47;;;-2.70;99.90;;;;;;5033086;28;20554;-64
2022/12/14 10:29:49;;;;;;;43.53;20.23;;;-2.70;99.90;;;;;;5047733;28;20113;-64
2022/12/14 10:32:27;;;;;;;45.23;19.70;;;-2.70;99.90;;;;;;5039475;28;20085;-64
2022/12/14 10:34:53;;;;;;;37.97;17.37;;;-2.70;99.90;;;;;;5033604;28;20050;-64
2022/12/14 10:37:41;;;;;;;46.37;19.90;;;-2.60;99.90;;;;;;5033742;28;20045;-64
2022/12/14 10:40:25;;;;;;;42.97;19.67;;;-2.60;99.90;;;;;;5019769;28;20057;-63
2022/12/14 10:43:20;;;;;;;50.07;18.90;;;-2.50;99.90;;;;;;5028141;28;20197;-63
2022/12/14 10:45:59;;;;;;;40.87;19.00;;;-2.50;99.90;;;;;;5027319;28;20117;-64
2022/12/14 10:49:00;;;;;;;39.23;18.73;;;-2.40;99.90;;;;;;5009365;28;20041;-63
2022/12/14 10:51:40;;;;;;;41.10;19.07;;;-2.40;99.90;;;;;;5013593;28;20129;-63
2022/12/14 10:54:21;;;;;;;41.50;18.73;;;-2.40;99.90;;;;;;5012622;28;20037;-64
2022/12/14 10:56:48;;;;;;;42.28;20.80;;;-2.30;99.90;;;;;;5022285;28;20034;-64
2022/12/14 10:59:17;;;;;;;36.77;18.60;;;-2.30;99.90;;;;;;5029227;28;20037;-64
2022/12/14 11:01:45;;;;;;;39.13;18.73;;;-2.30;99.90;;;;;;5024004;28;20041;-64
2022/12/14 11:04:43;;;;;;;46.33;20.27;;;-2.20;99.90;;;;;;5024092;28;20495;-65
2022/12/14 11:07:11;;;;;;;42.97;18.63;;;-2.20;99.90;;;;;;5023395;28;20077;-65
2022/12/14 11:09:38;;;;;;;35.20;17.53;;;-2.20;99.90;;;;;;5024689;28;20125;-64
2022/12/14 11:12:13;;;;;;;40.33;18.03;;;-2.10;99.90;;;;;;5018189;28;20049;-64
2022/12/14 11:14:50;;;;;;;41.97;18.47;;;-2.10;99.90;;;;;;5021906;28;20399;-64
2022/12/14 11:17:32;;;;;;;37.53;17.77;;;-2.10;99.90;;;;;;5018791;28;20052;-64
2022/12/14 11:20:14;;;;;;;39.20;18.10;;;-2.00;99.90;;;;;;5026755;28;20092;-64
2022/12/14 11:22:48;;;;;;;37.40;18.08;;;-2.00;99.90;;;;;;5020717;28;20049;-64
2022/12/14 11:25:26;;;;;;;40.50;18.50;;;-2.00;99.90;;;;;;5044360;28;20056;-64
2022/12/14 11:27:52;;;;;;;42.87;18.30;;;-1.90;99.90;;;;;;5032802;28;20037;-63
2022/12/14 11:30:18;;;;;;;34.60;16.87;;;-1.90;99.90;;;;;;5024859;28;20041;-63
2022/12/14 11:32:47;;;;;;;37.10;17.40;;;-1.80;99.90;;;;;;5022795;28;20446;-64
2022/12/14 11:35:17;;;;;;;38.83;18.07;;;-1.80;99.90;;;;;;5012802;28;20457;-63
2022/12/14 11:37:43;;;;;;;35.65;17.23;;;-1.70;99.90;;;;;;5026223;28;20124;-63
2022/12/14 11:40:36;;;;;;;35.60;17.13;;;-1.60;99.90;;;;;;5024402;28;20125;-63
2022/12/14 11:43:03;;;;;;;38.47;17.67;;;-1.60;99.90;;;;;;5026356;28;20116;-63
2022/12/14 11:45:32;;;;;;;37.13;17.63;;;-1.60;99.90;;;;;;5023643;28;20045;-63
2022/12/14 11:48:13;;;;;;;36.63;17.90;;;-1.50;99.90;;;;;;5023497;28;20576;-63
2022/12/14 11:50:39;;;;;;;35.65;17.42;;;-1.50;99.90;;;;;;5028132;28;20038;-63
2022/12/14 11:53:08;;;;;;;37.10;17.67;;;-1.40;99.90;;;;;;5027515;28;20045;-63
2022/12/14 11:55:37;;;;;;;35.93;16.87;;;-1.40;99.90;;;;;;5014803;28;20500;-64
2022/12/14 11:58:05;;;;;;;37.35;17.08;;;-1.30;99.90;;;;;;5031743;28;20037;-64
2022/12/14 12:00:34;;;;;;;37.17;16.25;;;-1.30;99.90;;;;;;5023988;28;20103;-64
2022/12/14 12:03:12;;;;;;;34.77;16.40;;;-1.20;99.90;;;;;;5019935;28;20042;-64
2022/12/14 12:05:40;;;;;;;34.13;16.57;;;-1.20;99.90;;;;;;5027136;28;20103;-64
2022/12/14 12:08:20;;;;;;;37.10;17.00;;;-1.20;99.90;;;;;;5025467;28;20045;-64
2022/12/14 12:10:49;;;;;;;35.47;16.93;;;-1.10;99.90;;;;;;5027654;28;20133;-64
2022/12/14 12:13:39;;;;;;;32.95;17.33;;;-1.10;99.90;;;;;;5028274;28;20037;-64
2022/12/14 12:16:12;;;;;;;35.42;17.25;;;-1.10;99.90;;;;;;5015892;28;20045;-63
2022/12/14 12:19:03;;;;;;;38.15;17.20;;;-1.00;99.90;;;;;;5016598;28;20042;-63
2022/12/14 12:21:32;;;;;;;31.27;16.23;;;-0.90;99.90;;;;;;5029300;28;20112;-63
2022/12/14 12:24:28;;;;;;;33.78;16.45;;;-0.90;99.90;;;;;;5030431;28;20053;-63
2022/12/14 12:26:56;;;;;;;31.20;16.23;;;-0.90;99.90;;;;;;5019438;28;20045;-63
2022/12/14 12:29:46;;;;;;;31.55;15.50;;;-0.80;99.90;;;;;;5021727;28;20041;-63
2022/12/14 12:32:20;;;;;;;31.80;15.05;;;-0.70;99.90;;;;;;5026352;28;20041;-63
2022/12/14 12:34:59;;;;;;;34.28;15.82;;;-0.60;99.90;;;;;;5025845;28;20403;-63
2022/12/14 12:37:46;;;;;;;31.75;15.63;;;-0.50;99.90;;;;;;5025934;28;20048;-63
2022/12/14 12:40:19;;;;;;;33.70;15.53;;;-0.50;99.90;;;;;;5021380;28;20041;-63
2022/12/14 12:42:48;;;;;;;35.88;14.90;;;-0.40;99.90;;;;;;5028119;28;20037;-63
2022/12/14 12:45:40;;;;;;;30.90;15.20;;;-0.10;99.90;;;;;;5021832;28;20042;-62
2022/12/14 12:48:27;;;;;;;28.95;15.05;;;0.10;99.90;;;;;;5022841;28;20450;-63
2022/12/14 12:50:58;;;;;;;29.10;14.90;;;0.10;99.90;;;;;;5030785;28;20038;-63
2022/12/14 12:53:38;;;;;;;30.83;15.52;;;0.30;99.90;;;;;;5030935;28;20498;-63
2022/12/14 12:56:10;;;;;;;31.20;14.52;;;0.50;99.90;;;;;;5028017;28;20083;-63
2022/12/14 12:58:38;;;;;;;32.28;16.17;;;0.70;99.90;;;;;;5024099;28;20383;-63
2022/12/14 13:01:15;;;;;;;30.60;14.05;;;0.80;99.90;;;;;;5025733;28;20037;-63
2022/12/14 13:03:47;;;;;;;28.73;14.93;;;0.90;99.90;;;;;;5032364;28;20266;-62
2022/12/14 13:06:31;;;;;;;32.17;15.63;;;1.10;99.90;;;;;;5030834;28;20537;-63
2022/12/14 13:09:06;;;;;;;32.00;14.73;;;1.40;99.90;;;;;;5062194;22;20095;-69